createdAt,value
2023-05-15T00:01:35.421Z,19.52
2023-05-15T00:04:02.563Z,19.51
2023-05-15T00:06:29.602Z,19.51
2023-05-15T00:08:56.297Z,19.51
2023-05-15T00:11:23.802Z,19.49
2023-05-15T00:13:50.809Z,19.49
2023-05-15T00:16:17.576Z,19.47
2023-05-15T00:18:44.782Z,19.45
2023-05-15T00:21:11.725Z,19.46
2023-05-15T00:23:38.487Z,19.44
2023-05-15T00:26:05.421Z,19.44
2023-05-15T00:28:32.271Z,19.42
2023-05-15T00:30:59.018Z,19.41
2023-05-15T00:33:25.789Z,19.41
2023-05-15T00:35:52.698Z,19.39
2023-05-15T00:38:19.381Z,19.38
2023-05-15T00:40:46.789Z,19.36
2023-05-15T00:43:15.437Z,19.35
2023-05-15T00:45:42.537Z,19.36
2023-05-15T00:48:12.367Z,19.35
2023-05-15T00:50:41.652Z,19.36
2023-05-15T00:53:08.871Z,19.34
2023-05-15T00:55:36.784Z,19.34
2023-05-15T00:58:04.098Z,19.32
2023-05-15T01:00:32.726Z,19.32
2023-05-15T01:03:00.091Z,19.31
2023-05-15T01:05:27.266Z,19.32
2023-05-15T01:08:26.688Z,19.28
2023-05-15T01:10:54.373Z,19.29
2023-05-15T01:13:22.573Z,19.28
2023-05-15T01:15:49.847Z,19.26
2023-05-15T01:18:17.241Z,19.27
2023-05-15T01:21:19.383Z,19.26
2023-05-15T01:24:16.717Z,19.24
2023-05-15T01:26:55.467Z,19.24
2023-05-15T01:29:27.476Z,19.22
2023-05-15T01:32:02.653Z,19.22
2023-05-15T01:34:50.291Z,19.19
2023-05-15T01:37:22.249Z,19.20
2023-05-15T01:39:54.069Z,19.20
2023-05-15T01:42:25.086Z,19.19
2023-05-15T01:44:56.050Z,19.18
2023-05-15T01:47:38.128Z,19.17
2023-05-15T01:50:08.476Z,19.17
2023-05-15T01:52:38.660Z,19.14
2023-05-15T01:55:08.562Z,19.14
2023-05-15T01:57:37.018Z,19.14
2023-05-15T02:00:04.484Z,19.15
2023-05-15T02:02:32.277Z,19.15
2023-05-15T02:05:00.087Z,19.13
2023-05-15T02:07:27.698Z,19.12
2023-05-15T02:09:54.506Z,19.11
2023-05-15T02:12:22.246Z,19.08
2023-05-15T02:14:50.344Z,19.10
2023-05-15T02:17:17.308Z,19.08
2023-05-15T02:19:44.092Z,19.08
2023-05-15T02:22:11.031Z,19.08
2023-05-15T02:24:37.760Z,19.04
2023-05-15T02:27:33.983Z,19.07
2023-05-15T02:30:07.469Z,19.05
2023-05-15T02:32:48.618Z,19.06
2023-05-15T02:35:53.144Z,19.03
2023-05-15T02:38:26.662Z,19.03
2023-05-15T02:40:56.899Z,19.02
2023-05-15T02:43:24.568Z,19.01
2023-05-15T02:45:52.785Z,19.01
2023-05-15T02:48:20.191Z,19.01
2023-05-15T02:50:46.893Z,19.00
2023-05-15T02:53:15.696Z,18.99
2023-05-15T02:55:42.440Z,19.00
2023-05-15T02:58:09.635Z,18.98
2023-05-15T03:00:36.370Z,18.99
2023-05-15T03:03:03.278Z,18.97
2023-05-15T03:05:30.007Z,18.97
2023-05-15T03:07:57.869Z,18.96
2023-05-15T03:10:24.689Z,18.97
2023-05-15T03:12:51.561Z,18.95
2023-05-15T03:15:18.523Z,18.93
2023-05-15T03:17:45.232Z,18.94
2023-05-15T03:20:12.121Z,18.92
2023-05-15T03:22:38.836Z,18.92
2023-05-15T03:25:06.034Z,18.91
2023-05-15T03:27:32.728Z,18.89
2023-05-15T03:29:59.582Z,18.91
2023-05-15T03:32:26.450Z,18.91
2023-05-15T03:34:53.158Z,18.91
2023-05-15T03:37:19.997Z,18.87
2023-05-15T03:39:46.774Z,18.86
2023-05-15T03:42:13.556Z,18.88
2023-05-15T03:44:40.268Z,18.85
2023-05-15T03:47:07.306Z,18.84
2023-05-15T03:49:34.005Z,18.85
2023-05-15T03:52:00.812Z,18.85
2023-05-15T03:54:27.557Z,18.84
2023-05-15T03:56:54.327Z,18.83
2023-05-15T03:59:21.114Z,18.82
2023-05-15T04:02:02.677Z,18.81
2023-05-15T04:04:31.429Z,18.81
2023-05-15T04:06:58.251Z,18.80
2023-05-15T04:09:25.012Z,18.79
2023-05-15T04:11:51.716Z,18.78
2023-05-15T04:14:18.521Z,18.78
2023-05-15T04:16:45.340Z,18.79
2023-05-15T04:19:12.276Z,18.81
2023-05-15T04:21:39.080Z,18.78
2023-05-15T04:24:07.490Z,18.76
2023-05-15T04:26:34.475Z,18.78
2023-05-15T04:29:04.330Z,18.77
2023-05-15T04:31:32.006Z,18.78
2023-05-15T04:33:58.997Z,18.79
2023-05-15T04:36:26.013Z,18.77
2023-05-15T04:38:53.182Z,18.76
2023-05-15T04:41:20.202Z,18.73
2023-05-15T04:43:47.330Z,18.75
2023-05-15T04:46:14.269Z,18.72
2023-05-15T04:48:41.123Z,18.69
2023-05-15T04:51:08.444Z,18.69
2023-05-15T04:53:35.473Z,18.68
2023-05-15T04:56:02.314Z,18.66
2023-05-15T04:58:29.280Z,18.65
2023-05-15T05:00:56.163Z,18.66
2023-05-15T05:03:23.386Z,18.65
2023-05-15T05:05:50.221Z,18.69
2023-05-15T05:08:16.991Z,18.67
2023-05-15T05:10:43.816Z,18.69
2023-05-15T05:13:10.657Z,18.67
2023-05-15T05:15:37.864Z,18.66
2023-05-15T05:18:05.256Z,18.62
2023-05-15T05:20:32.491Z,18.61
2023-05-15T05:22:59.296Z,18.60
2023-05-15T05:25:26.345Z,18.60
2023-05-15T05:27:53.374Z,18.59
2023-05-15T05:30:20.453Z,18.59
2023-05-15T05:32:47.328Z,18.59
2023-05-15T05:35:14.405Z,18.63
2023-05-15T05:37:41.611Z,18.61
2023-05-15T05:40:09.379Z,18.60
2023-05-15T05:42:36.180Z,18.59
2023-05-15T05:45:03.008Z,18.60
2023-05-15T05:47:29.851Z,18.58
2023-05-15T05:49:56.826Z,18.62
2023-05-15T05:52:23.712Z,18.63
2023-05-15T05:54:50.606Z,18.59
2023-05-15T05:57:17.392Z,18.62
2023-05-15T05:59:44.333Z,18.62
2023-05-15T06:02:11.646Z,18.60
2023-05-15T06:04:38.565Z,18.62
2023-05-15T06:07:05.429Z,18.55
2023-05-15T06:09:32.919Z,18.55
2023-05-15T06:12:01.136Z,18.54
2023-05-15T06:14:27.968Z,18.60
2023-05-15T06:16:54.872Z,18.52
2023-05-15T06:19:22.235Z,18.56
2023-05-15T06:21:49.267Z,18.61
2023-05-15T06:24:16.058Z,18.57
2023-05-15T06:26:42.989Z,18.56
2023-05-15T06:29:09.827Z,18.58
2023-05-15T06:31:36.631Z,18.62
2023-05-15T06:34:03.461Z,18.61
2023-05-15T06:36:30.484Z,18.59
2023-05-15T06:38:57.310Z,18.61
2023-05-15T06:41:24.179Z,18.62
2023-05-15T06:43:51.084Z,18.64
2023-05-15T06:46:19.374Z,18.58
2023-05-15T06:48:46.270Z,18.62
2023-05-15T06:51:13.672Z,18.59
2023-05-15T06:53:42.536Z,18.63
2023-05-15T06:56:09.574Z,18.67
2023-05-15T06:58:36.454Z,18.71
2023-05-15T07:01:04.164Z,18.73
2023-05-15T07:03:31.017Z,18.75
2023-05-15T07:05:57.929Z,18.77
2023-05-15T07:08:24.728Z,18.78
2023-05-15T07:10:51.874Z,18.70
2023-05-15T07:13:20.130Z,18.80
2023-05-15T07:15:47.334Z,18.84
2023-05-15T07:18:14.222Z,18.86
2023-05-15T07:20:41.224Z,18.88
2023-05-15T07:23:08.313Z,18.92
2023-05-15T07:25:35.268Z,18.91
2023-05-15T07:28:02.215Z,18.87
2023-05-15T07:30:29.073Z,18.91
2023-05-15T07:32:56.242Z,18.92
2023-05-15T07:35:23.406Z,18.96
2023-05-15T07:37:50.370Z,18.96
2023-05-15T07:40:17.255Z,19.01
2023-05-15T07:42:44.921Z,19.02
2023-05-15T07:45:11.916Z,19.02
2023-05-15T07:47:39.051Z,19.08
2023-05-15T07:50:06.407Z,19.06
2023-05-15T07:52:33.246Z,19.12
2023-05-15T07:55:00.102Z,19.16
2023-05-15T07:57:26.940Z,19.17
2023-05-15T07:59:53.780Z,19.17
2023-05-15T08:02:20.638Z,19.19
2023-05-15T08:04:47.524Z,19.20
2023-05-15T08:07:14.817Z,19.19
2023-05-15T08:09:42.617Z,19.20
2023-05-15T08:12:22.715Z,19.22
2023-05-15T08:14:54.682Z,19.23
2023-05-15T08:17:22.676Z,19.24
2023-05-15T08:19:50.004Z,19.23
2023-05-15T08:22:17.262Z,19.19
2023-05-15T08:24:44.997Z,19.25
2023-05-15T08:27:11.962Z,19.25
2023-05-15T08:29:39.796Z,19.25
2023-05-15T08:32:07.938Z,19.32
2023-05-15T08:34:34.814Z,19.35
2023-05-15T08:37:01.915Z,19.35
2023-05-15T08:39:29.137Z,19.37
2023-05-15T08:42:02.092Z,19.36
2023-05-15T08:44:29.204Z,19.33
2023-05-15T08:46:56.653Z,19.39
2023-05-15T08:49:46.587Z,19.45
2023-05-15T08:52:13.460Z,19.44
2023-05-15T08:54:40.916Z,19.47
2023-05-15T08:57:09.715Z,19.50
2023-05-15T08:59:38.059Z,19.49
2023-05-15T09:02:05.126Z,19.51
2023-05-15T09:04:32.356Z,19.52
2023-05-15T09:07:04.113Z,19.58
2023-05-15T09:09:34.557Z,19.60
2023-05-15T09:12:02.760Z,19.63
2023-05-15T09:14:30.330Z,19.64
2023-05-15T09:16:57.250Z,19.64
2023-05-15T09:19:24.233Z,19.62
2023-05-15T09:21:51.159Z,19.63
2023-05-15T09:24:23.074Z,19.65
2023-05-15T09:27:04.340Z,19.65
2023-05-15T09:29:32.496Z,19.62
2023-05-15T09:32:07.951Z,19.60
2023-05-15T09:34:37.316Z,19.60
2023-05-15T09:37:09.791Z,19.60
2023-05-15T09:39:44.351Z,19.65
2023-05-15T09:42:13.637Z,19.67
2023-05-15T09:44:44.968Z,19.69
2023-05-15T09:47:13.511Z,19.71
2023-05-15T09:49:44.943Z,19.69
2023-05-15T09:52:12.043Z,19.69
2023-05-15T09:54:38.948Z,19.74
2023-05-15T09:57:10.410Z,19.82
2023-05-15T09:59:44.910Z,19.90
2023-05-15T10:02:22.420Z,19.95
2023-05-15T10:04:56.166Z,20.01
2023-05-15T10:07:32.769Z,20.07
2023-05-15T10:10:00.773Z,20.13
2023-05-15T10:12:28.871Z,20.12
2023-05-15T10:15:01.462Z,20.07
2023-05-15T10:17:30.507Z,20.05
2023-05-15T10:20:00.849Z,19.99
2023-05-15T10:22:31.177Z,19.94
2023-05-15T10:25:08.150Z,19.90
2023-05-15T10:27:36.328Z,19.87
2023-05-15T10:30:04.572Z,19.83
2023-05-15T10:32:32.963Z,19.81
2023-05-15T10:34:59.836Z,19.80
2023-05-15T10:37:28.591Z,19.81
2023-05-15T10:39:57.667Z,19.81
2023-05-15T10:42:26.744Z,19.82
2023-05-15T10:45:00.232Z,19.82
2023-05-15T10:47:27.733Z,19.83
2023-05-15T10:49:54.610Z,19.81
2023-05-15T10:52:21.519Z,19.81
2023-05-15T10:54:48.496Z,19.79
2023-05-15T10:57:15.609Z,19.78
2023-05-15T10:59:42.444Z,19.78
2023-05-15T11:02:21.078Z,19.79
2023-05-15T11:04:48.412Z,19.81
2023-05-15T11:07:18.284Z,19.84
2023-05-15T11:09:45.163Z,19.86
2023-05-15T11:12:12.051Z,19.89
2023-05-15T11:14:41.271Z,19.91
2023-05-15T11:17:10.872Z,19.95
2023-05-15T11:19:50.100Z,19.98
2023-05-15T11:22:17.003Z,20.01
2023-05-15T11:25:10.439Z,20.04
2023-05-15T11:27:45.053Z,20.07
2023-05-15T11:30:20.768Z,20.12
2023-05-15T11:32:47.644Z,20.12
2023-05-15T11:35:23.154Z,20.16
2023-05-15T11:37:58.098Z,20.20
2023-05-15T11:40:28.279Z,20.20
2023-05-15T11:43:06.059Z,20.19
2023-05-15T11:45:35.926Z,20.20
2023-05-15T11:48:06.221Z,20.26
2023-05-15T11:50:35.014Z,20.35
2023-05-15T11:53:04.317Z,20.44
2023-05-15T11:55:32.868Z,20.53
2023-05-15T11:58:00.805Z,20.59
2023-05-15T12:00:27.905Z,20.64
2023-05-15T12:02:54.938Z,20.70
2023-05-15T12:05:22.679Z,20.76
2023-05-15T12:07:51.185Z,20.80
2023-05-15T12:10:18.172Z,20.90
2023-05-15T12:12:48.874Z,20.94
2023-05-15T12:15:17.552Z,20.96
2023-05-15T12:17:45.945Z,20.95
2023-05-15T12:20:17.562Z,21.00
2023-05-15T12:22:45.275Z,21.06
2023-05-15T12:25:13.172Z,21.15
2023-05-15T12:27:40.871Z,21.20
2023-05-15T12:30:09.386Z,21.34
2023-05-15T12:32:37.864Z,21.44
2023-05-15T12:35:05.449Z,21.53
2023-05-15T12:37:35.850Z,21.53
2023-05-15T12:40:10.503Z,21.56
2023-05-15T12:42:42.190Z,21.45
2023-05-15T12:45:17.759Z,21.42
2023-05-15T12:47:46.666Z,21.41
2023-05-15T12:50:17.086Z,21.41
2023-05-15T12:53:04.189Z,21.44
2023-05-15T12:55:35.379Z,21.48
2023-05-15T12:58:08.879Z,21.52
2023-05-15T13:00:37.229Z,21.57
2023-05-15T13:03:05.373Z,21.63
2023-05-15T13:05:33.412Z,21.64
2023-05-15T13:08:01.245Z,21.72
2023-05-15T13:10:28.229Z,21.78
2023-05-15T13:12:57.076Z,21.86
2023-05-15T13:15:31.167Z,21.89
2023-05-15T13:18:07.283Z,21.92
2023-05-15T13:20:36.708Z,21.97
2023-05-15T13:23:03.895Z,21.98
2023-05-15T13:25:32.158Z,22.14
2023-05-15T13:28:02.567Z,22.18
2023-05-15T13:30:30.127Z,22.16
2023-05-15T13:32:57.020Z,22.03
2023-05-15T13:35:24.719Z,21.98
2023-05-15T13:37:51.949Z,21.95
2023-05-15T13:40:19.018Z,21.74
2023-05-15T13:42:46.448Z,21.72
2023-05-15T13:45:14.772Z,22.04
2023-05-15T13:47:42.596Z,21.98
2023-05-15T13:50:11.358Z,21.67
2023-05-15T13:52:38.874Z,21.60
2023-05-15T13:55:06.722Z,21.69
2023-05-15T13:57:33.531Z,21.86
2023-05-15T14:00:00.320Z,21.97
2023-05-15T14:02:27.319Z,21.94
2023-05-15T14:04:54.153Z,21.68
2023-05-15T14:07:24.314Z,21.52
2023-05-15T14:09:52.326Z,21.43
2023-05-15T14:12:19.307Z,21.38
2023-05-15T14:14:47.244Z,21.36
2023-05-15T14:17:15.224Z,21.36
2023-05-15T14:19:42.076Z,21.34
2023-05-15T14:22:09.341Z,21.30
2023-05-15T14:24:36.250Z,21.30
2023-05-15T14:27:03.103Z,21.33
2023-05-15T14:29:29.926Z,21.31
2023-05-15T14:31:56.881Z,21.29
2023-05-15T14:34:23.778Z,21.29
2023-05-15T14:36:51.175Z,21.32
2023-05-15T14:39:18.626Z,21.37
2023-05-15T14:41:45.977Z,21.44
2023-05-15T14:44:13.273Z,21.70
2023-05-15T14:46:42.931Z,21.57
2023-05-15T14:49:10.002Z,21.47
2023-05-15T14:51:36.816Z,21.47
2023-05-15T14:54:05.270Z,21.57
2023-05-15T14:56:32.438Z,21.87
2023-05-15T14:58:59.239Z,21.78
2023-05-15T15:01:26.156Z,21.57
2023-05-15T15:03:53.100Z,21.46
2023-05-15T15:06:20.033Z,21.41
2023-05-15T15:08:46.852Z,21.40
2023-05-15T15:11:13.717Z,21.39
2023-05-15T15:13:40.665Z,21.40
2023-05-15T15:16:08.502Z,21.39
2023-05-15T15:18:35.283Z,21.41
2023-05-15T15:21:02.332Z,21.40
2023-05-15T15:23:29.260Z,21.37
2023-05-15T15:25:56.040Z,21.36
2023-05-15T15:28:22.804Z,21.36
2023-05-15T15:30:49.722Z,21.35
2023-05-15T15:33:16.540Z,21.42
2023-05-15T15:35:43.313Z,21.56
2023-05-15T15:38:11.861Z,21.54
2023-05-15T15:40:38.826Z,21.43
2023-05-15T15:43:05.624Z,21.32
2023-05-15T15:45:32.630Z,21.27
2023-05-15T15:47:59.616Z,21.23
2023-05-15T15:50:26.695Z,21.20
2023-05-15T15:52:53.656Z,21.20
2023-05-15T15:55:20.481Z,21.18
2023-05-15T15:57:47.277Z,21.16
2023-05-15T16:00:14.441Z,21.13
2023-05-15T16:02:41.579Z,21.12
2023-05-15T16:05:09.416Z,21.11
2023-05-15T16:07:36.214Z,21.10
2023-05-15T16:10:12.273Z,21.09
2023-05-15T16:12:41.006Z,21.09
2023-05-15T16:15:21.637Z,21.08
2023-05-15T16:17:53.733Z,21.08
2023-05-15T16:20:21.172Z,21.08
2023-05-15T16:22:47.976Z,21.06
2023-05-15T16:25:14.768Z,21.05
2023-05-15T16:27:41.553Z,21.04
2023-05-15T16:30:09.554Z,21.04
2023-05-15T16:32:36.494Z,21.04
2023-05-15T16:35:03.898Z,21.03
2023-05-15T16:37:30.629Z,21.01
2023-05-15T16:39:57.342Z,21.03
2023-05-15T16:42:24.377Z,21.03
2023-05-15T16:44:51.443Z,21.03
2023-05-15T16:47:18.135Z,21.03
2023-05-15T16:49:46.313Z,21.02
2023-05-15T16:52:14.394Z,21.02
2023-05-15T16:54:42.144Z,21.02
2023-05-15T16:57:08.972Z,21.05
2023-05-15T16:59:35.828Z,21.09
2023-05-15T17:02:02.610Z,21.10
2023-05-15T17:04:33.115Z,21.11
2023-05-15T17:07:00.113Z,21.09
2023-05-15T17:09:27.011Z,21.07
2023-05-15T17:11:53.913Z,21.08
2023-05-15T17:14:21.410Z,21.13
2023-05-15T17:16:48.333Z,21.10
2023-05-15T17:19:15.652Z,21.11
2023-05-15T17:21:42.637Z,21.16
2023-05-15T17:24:09.532Z,21.19
2023-05-15T17:26:36.258Z,21.18
2023-05-15T17:29:03.359Z,21.16
2023-05-15T17:31:30.204Z,21.18
2023-05-15T17:33:57.047Z,21.21
2023-05-15T17:36:23.832Z,21.23
2023-05-15T17:38:50.591Z,21.21
2023-05-15T17:41:17.283Z,21.19
2023-05-15T17:43:44.181Z,21.20
2023-05-15T17:46:10.989Z,21.20
2023-05-15T17:48:37.722Z,21.21
2023-05-15T17:51:04.548Z,21.22
2023-05-15T17:53:31.386Z,21.22
2023-05-15T17:55:58.099Z,21.20
2023-05-15T17:58:25.028Z,21.21
2023-05-15T18:00:52.282Z,21.19
2023-05-15T18:03:19.079Z,21.18
2023-05-15T18:05:47.160Z,21.14
2023-05-15T18:08:14.623Z,21.11
2023-05-15T18:10:41.441Z,21.10
2023-05-15T18:13:08.243Z,21.07
2023-05-15T18:15:37.938Z,21.04
2023-05-15T18:18:05.205Z,21.03
2023-05-15T18:20:32.016Z,21.01
2023-05-15T18:22:58.800Z,20.97
2023-05-15T18:25:26.867Z,20.96
2023-05-15T18:27:53.895Z,20.95
2023-05-15T18:30:20.721Z,20.96
2023-05-15T18:32:47.494Z,20.93
2023-05-15T18:35:14.355Z,20.91
2023-05-15T18:37:41.125Z,20.89
2023-05-15T18:40:08.638Z,20.88
2023-05-15T18:42:35.419Z,20.86
2023-05-15T18:45:02.388Z,20.87
2023-05-15T18:47:29.186Z,20.87
2023-05-15T18:49:56.159Z,20.85
2023-05-15T18:52:23.372Z,20.85
2023-05-15T18:54:50.231Z,20.83
2023-05-15T18:57:17.050Z,20.81
2023-05-15T18:59:44.654Z,20.82
2023-05-15T19:02:11.473Z,20.81
2023-05-15T19:04:38.244Z,20.80
2023-05-15T19:07:05.791Z,20.79
2023-05-15T19:09:32.799Z,20.79
2023-05-15T19:12:00.474Z,20.78
2023-05-15T19:14:27.255Z,20.76
2023-05-15T19:16:54.316Z,20.76
2023-05-15T19:19:21.110Z,20.76
2023-05-15T19:21:47.834Z,20.74
2023-05-15T19:24:14.568Z,20.75
2023-05-15T19:26:41.697Z,20.73
2023-05-15T19:29:08.495Z,20.71
2023-05-15T19:31:35.325Z,20.70
2023-05-15T19:34:02.088Z,20.71
2023-05-15T19:36:28.920Z,20.69
2023-05-15T19:38:55.981Z,20.68
2023-05-15T19:41:22.896Z,20.68
2023-05-15T19:43:51.100Z,20.66
2023-05-15T19:46:18.614Z,20.65
2023-05-15T19:48:46.198Z,20.64
2023-05-15T19:51:13.373Z,20.63
2023-05-15T19:53:40.214Z,20.62
2023-05-15T19:56:07.302Z,20.61
2023-05-15T19:58:34.032Z,20.61
2023-05-15T20:01:00.773Z,20.60
2023-05-15T20:03:33.322Z,20.60
2023-05-15T20:06:01.728Z,20.57
2023-05-15T20:08:29.377Z,20.57
2023-05-15T20:10:57.088Z,20.56
2023-05-15T20:13:23.958Z,20.55
2023-05-15T20:15:58.196Z,20.54
2023-05-15T20:18:25.915Z,20.53
2023-05-15T20:20:53.265Z,20.52
2023-05-15T20:23:20.851Z,20.49
2023-05-15T20:25:49.207Z,20.48
2023-05-15T20:28:16.269Z,20.47
2023-05-15T20:30:43.020Z,20.47
2023-05-15T20:33:09.840Z,20.44
2023-05-15T20:35:37.459Z,20.42
2023-05-15T20:38:04.829Z,20.43
2023-05-15T20:40:31.609Z,20.42
2023-05-15T20:42:59.419Z,20.42
2023-05-15T20:45:26.205Z,20.40
2023-05-15T20:47:53.123Z,20.39
2023-05-15T20:50:19.877Z,20.39
2023-05-15T20:52:46.725Z,20.38
2023-05-15T20:55:21.226Z,20.38
2023-05-15T20:57:49.207Z,20.36
2023-05-15T21:00:17.759Z,20.35
2023-05-15T21:02:46.021Z,20.34
2023-05-15T21:05:13.061Z,20.33
2023-05-15T21:07:39.833Z,20.32
2023-05-15T21:10:07.305Z,20.29
2023-05-15T21:12:34.481Z,20.29
2023-05-15T21:15:02.064Z,20.28
2023-05-15T21:17:28.961Z,20.28
2023-05-15T21:19:57.740Z,20.25
2023-05-15T21:22:24.901Z,20.25
2023-05-15T21:24:51.872Z,20.24
2023-05-15T21:27:18.627Z,20.22
2023-05-15T21:29:45.567Z,20.22
2023-05-15T21:32:12.312Z,20.21
2023-05-15T21:34:39.556Z,20.20
2023-05-15T21:37:06.307Z,20.17
2023-05-15T21:39:33.012Z,20.16
2023-05-15T21:41:59.785Z,20.16
2023-05-15T21:44:26.557Z,20.16
2023-05-15T21:46:53.561Z,20.15
2023-05-15T21:49:20.419Z,20.14
2023-05-15T21:51:47.126Z,20.12
2023-05-15T21:54:13.905Z,20.12
2023-05-15T21:56:41.391Z,20.13
2023-05-15T21:59:08.260Z,20.13
2023-05-15T22:01:36.436Z,20.10
2023-05-15T22:04:03.339Z,20.09
2023-05-15T22:06:30.081Z,20.08
2023-05-15T22:08:57.332Z,20.06
2023-05-15T22:11:24.016Z,20.07
2023-05-15T22:13:50.911Z,20.06
2023-05-15T22:16:17.953Z,20.05
2023-05-15T22:18:46.060Z,20.04
2023-05-15T22:21:13.016Z,20.02
2023-05-15T22:23:39.783Z,20.02
2023-05-15T22:26:06.533Z,20.00
2023-05-15T22:28:33.264Z,19.99
2023-05-15T22:31:00.157Z,19.99
2023-05-15T22:33:27.404Z,19.99
2023-05-15T22:35:54.195Z,19.97
2023-05-15T22:38:21.166Z,19.97
2023-05-15T22:40:52.991Z,19.96
2023-05-15T22:43:20.236Z,19.95
2023-05-15T22:45:46.991Z,19.94
2023-05-15T22:48:15.541Z,19.92
2023-05-15T22:50:43.845Z,19.91
2023-05-15T22:53:10.810Z,19.91
2023-05-15T22:55:37.618Z,19.89
2023-05-15T22:58:04.338Z,19.88
2023-05-15T23:00:31.491Z,19.88
2023-05-15T23:02:58.354Z,19.87
2023-05-15T23:05:25.497Z,19.87
2023-05-15T23:07:52.810Z,19.87
2023-05-15T23:10:38.081Z,19.83
2023-05-15T23:13:04.994Z,19.82
2023-05-15T23:15:31.782Z,19.81
2023-05-15T23:17:58.638Z,19.83
2023-05-15T23:20:25.852Z,19.80
2023-05-15T23:22:52.863Z,19.78
2023-05-15T23:25:19.732Z,19.77
2023-05-15T23:27:46.497Z,19.75
2023-05-15T23:30:13.935Z,19.77
2023-05-15T23:32:40.873Z,19.74
2023-05-15T23:35:08.012Z,19.73
2023-05-15T23:37:34.792Z,19.74
2023-05-15T23:40:01.646Z,19.73
2023-05-15T23:42:30.498Z,19.72
2023-05-15T23:44:57.294Z,19.69
2023-05-15T23:47:24.290Z,19.70
2023-05-15T23:49:51.182Z,19.67
2023-05-15T23:52:17.878Z,19.68
2023-05-15T23:54:44.692Z,19.67
2023-05-15T23:57:11.500Z,19.66
2023-05-15T23:59:38.189Z,19.67
